createdAt,value
2023-03-22T00:00:39.988Z,8.26
2023-03-22T00:01:39.675Z,8.22
2023-03-22T00:02:39.694Z,8.12
2023-03-22T00:03:39.659Z,8.20
2023-03-22T00:04:39.661Z,8.03
2023-03-22T00:05:39.602Z,8.32
2023-03-22T00:06:39.622Z,8.15
2023-03-22T00:07:39.592Z,8.17
2023-03-22T00:08:39.570Z,8.12
2023-03-22T00:09:39.612Z,8.21
2023-03-22T00:10:39.918Z,8.12
2023-03-22T00:11:39.547Z,8.15
2023-03-22T00:12:39.538Z,8.07
2023-03-22T00:13:39.529Z,8.07
2023-03-22T00:14:39.529Z,8.14
2023-03-22T00:15:39.589Z,8.15
2023-03-22T00:16:39.522Z,8.10
2023-03-22T00:17:39.483Z,8.08
2023-03-22T00:18:39.475Z,8.07
2023-03-22T00:19:39.488Z,8.10
2023-03-22T00:20:39.741Z,7.97
2023-03-22T00:21:39.450Z,8.00
2023-03-22T00:22:39.448Z,7.92
2023-03-22T00:23:39.431Z,8.04
2023-03-22T00:24:39.445Z,7.96
2023-03-22T00:25:39.407Z,7.96
2023-03-22T00:26:39.418Z,7.97
2023-03-22T00:27:39.407Z,8.08
2023-03-22T00:28:39.391Z,7.94
2023-03-22T00:29:39.421Z,8.14
2023-03-22T00:30:39.693Z,8.08
2023-03-22T00:31:39.419Z,7.96
2023-03-22T00:32:39.377Z,7.97
2023-03-22T00:33:39.352Z,8.02
2023-03-22T00:34:39.351Z,7.94
2023-03-22T00:35:39.372Z,8.10
2023-03-22T00:36:39.305Z,7.99
2023-03-22T00:37:39.311Z,8.04
2023-03-22T00:38:45.549Z,8.02
2023-03-22T00:39:41.310Z,8.04
2023-03-22T00:40:40.441Z,8.04
2023-03-22T00:41:39.262Z,8.03
2023-03-22T00:42:39.249Z,8.11
2023-03-22T00:43:39.245Z,8.03
2023-03-22T00:44:39.266Z,8.10
2023-03-22T00:45:39.219Z,8.07
2023-03-22T00:46:39.222Z,8.04
2023-03-22T00:47:39.202Z,8.10
2023-03-22T00:48:39.183Z,8.03
2023-03-22T00:49:39.202Z,8.15
2023-03-22T00:50:39.395Z,8.10
2023-03-22T00:51:39.147Z,8.08
2023-03-22T00:52:39.145Z,8.00
2023-03-22T00:53:42.424Z,8.00
2023-03-22T00:54:39.129Z,8.07
2023-03-22T00:55:39.138Z,8.07
2023-03-22T00:56:39.120Z,8.08
2023-03-22T00:57:39.128Z,8.10
2023-03-22T00:58:39.101Z,7.97
2023-03-22T00:59:39.082Z,8.02
2023-03-22T01:00:39.441Z,8.03
2023-03-22T01:01:39.063Z,7.96
2023-03-22T01:02:39.051Z,7.97
2023-03-22T01:03:39.068Z,7.97
2023-03-22T01:04:39.053Z,7.90
2023-03-22T01:05:39.061Z,7.94
2023-03-22T01:06:39.007Z,7.96
2023-03-22T01:07:39.007Z,7.97
2023-03-22T01:08:39.412Z,7.93
2023-03-22T01:09:38.985Z,7.92
2023-03-22T01:10:39.201Z,7.92
2023-03-22T01:11:38.948Z,7.94
2023-03-22T01:12:38.944Z,7.85
2023-03-22T01:13:38.940Z,7.82
2023-03-22T01:14:38.929Z,8.00
2023-03-22T01:15:38.960Z,7.87
2023-03-22T01:16:38.961Z,7.77
2023-03-22T01:17:38.901Z,7.87
2023-03-22T01:18:38.892Z,7.90
2023-03-22T01:19:38.882Z,7.84
2023-03-22T01:20:39.293Z,7.87
2023-03-22T01:21:38.871Z,7.84
2023-03-22T01:22:38.853Z,7.93
2023-03-22T01:23:38.849Z,7.84
2023-03-22T01:24:38.843Z,7.81
2023-03-22T01:25:38.844Z,7.97
2023-03-22T01:26:38.809Z,7.92
2023-03-22T01:27:38.806Z,7.87
2023-03-22T01:28:38.785Z,7.75
2023-03-22T01:29:38.786Z,7.74
2023-03-22T01:30:39.078Z,7.89
2023-03-22T01:31:38.768Z,7.79
2023-03-22T01:32:38.763Z,7.75
2023-03-22T01:33:38.778Z,7.78
2023-03-22T01:34:38.729Z,7.82
2023-03-22T01:35:38.769Z,7.93
2023-03-22T01:36:38.712Z,7.75
2023-03-22T01:37:38.706Z,7.85
2023-03-22T01:38:38.715Z,7.78
2023-03-22T01:39:38.724Z,7.72
2023-03-22T01:40:39.023Z,7.84
2023-03-22T01:41:38.672Z,7.84
2023-03-22T01:42:38.674Z,7.79
2023-03-22T01:43:38.658Z,7.79
2023-03-22T01:44:38.639Z,7.82
2023-03-22T01:45:38.680Z,7.96
2023-03-22T01:46:38.716Z,7.89
2023-03-22T01:47:38.610Z,7.92
2023-03-22T01:48:38.721Z,7.87
2023-03-22T01:49:38.593Z,8.02
2023-03-22T01:50:38.882Z,7.79
2023-03-22T01:51:38.574Z,7.92
2023-03-22T01:52:38.557Z,7.92
2023-03-22T01:53:38.556Z,7.89
2023-03-22T01:54:38.550Z,7.85
2023-03-22T01:55:38.560Z,7.81
2023-03-22T01:56:38.525Z,7.82
2023-03-22T01:57:38.517Z,7.92
2023-03-22T01:58:38.503Z,7.79
2023-03-22T01:59:38.500Z,7.79
2023-03-22T02:00:38.825Z,7.77
2023-03-22T02:01:38.497Z,7.72
2023-03-22T02:02:39.530Z,7.78
2023-03-22T02:03:38.452Z,7.74
2023-03-22T02:04:38.493Z,7.60
2023-03-22T02:05:38.469Z,7.72
2023-03-22T02:06:38.466Z,7.72
2023-03-22T02:07:38.420Z,7.77
2023-03-22T02:08:38.406Z,7.78
2023-03-22T02:09:38.397Z,7.62
2023-03-22T02:10:38.575Z,7.74
2023-03-22T02:11:38.374Z,7.63
2023-03-22T02:12:38.365Z,7.62
2023-03-22T02:13:38.364Z,7.50
2023-03-22T02:14:38.353Z,7.56
2023-03-22T02:15:39.428Z,7.59
2023-03-22T02:16:38.392Z,7.49
2023-03-22T02:17:38.326Z,7.59
2023-03-22T02:18:38.312Z,7.58
2023-03-22T02:19:38.303Z,7.50
2023-03-22T02:20:38.699Z,7.47
2023-03-22T02:21:38.275Z,7.42
2023-03-22T02:22:38.277Z,7.47
2023-03-22T02:23:38.260Z,7.41
2023-03-22T02:24:38.278Z,7.40
2023-03-22T02:25:38.295Z,7.50
2023-03-22T02:26:38.234Z,7.44
2023-03-22T02:27:38.242Z,7.44
2023-03-22T02:28:38.234Z,7.44
2023-03-22T02:29:38.207Z,7.47
2023-03-22T02:30:38.554Z,7.50
2023-03-22T02:31:38.255Z,7.41
2023-03-22T02:32:38.190Z,7.38
2023-03-22T02:33:40.449Z,7.38
2023-03-22T02:34:38.148Z,7.47
2023-03-22T02:35:38.184Z,7.38
2023-03-22T02:36:38.131Z,7.38
2023-03-22T02:37:38.138Z,7.35
2023-03-22T02:38:38.113Z,7.40
2023-03-22T02:39:38.105Z,7.49
2023-03-22T02:40:38.512Z,7.42
2023-03-22T02:41:38.094Z,7.35
2023-03-22T02:42:38.084Z,7.35
2023-03-22T02:43:38.078Z,7.35
2023-03-22T02:44:38.050Z,7.42
2023-03-22T02:45:38.071Z,7.35
2023-03-22T02:46:38.088Z,7.38
2023-03-22T02:47:38.027Z,7.40
2023-03-22T02:48:38.009Z,7.42
2023-03-22T02:49:38.013Z,7.32
2023-03-22T02:50:38.435Z,7.37
2023-03-22T02:51:38.010Z,7.37
2023-03-22T02:52:37.972Z,7.37
2023-03-22T02:53:37.958Z,7.35
2023-03-22T02:54:37.948Z,7.49
2023-03-22T02:55:37.949Z,7.42
2023-03-22T02:56:37.953Z,7.38
2023-03-22T02:57:37.930Z,7.35
2023-03-22T02:58:37.915Z,7.34
2023-03-22T02:59:37.905Z,7.42
2023-03-22T03:00:38.408Z,7.29
2023-03-22T03:01:37.987Z,7.27
2023-03-22T03:02:37.872Z,7.32
2023-03-22T03:03:37.870Z,7.29
2023-03-22T03:04:37.860Z,7.31
2023-03-22T03:05:37.848Z,7.37
2023-03-22T03:06:37.853Z,7.32
2023-03-22T03:07:37.830Z,7.32
2023-03-22T03:08:37.813Z,7.34
2023-03-22T03:09:37.807Z,7.44
2023-03-22T03:10:38.191Z,7.42
2023-03-22T03:11:37.811Z,7.34
2023-03-22T03:12:37.781Z,7.35
2023-03-22T03:13:37.809Z,7.47
2023-03-22T03:14:37.759Z,7.40
2023-03-22T03:15:37.754Z,7.32
2023-03-22T03:16:37.822Z,7.24
2023-03-22T03:17:37.729Z,7.34
2023-03-22T03:18:37.721Z,7.35
2023-03-22T03:19:37.710Z,7.40
2023-03-22T03:20:38.304Z,7.41
2023-03-22T03:21:37.690Z,7.37
2023-03-22T03:22:37.680Z,7.41
2023-03-22T03:23:37.670Z,7.29
2023-03-22T03:24:37.670Z,7.22
2023-03-22T03:25:37.702Z,7.37
2023-03-22T03:26:37.649Z,7.37
2023-03-22T03:27:37.638Z,7.37
2023-03-22T03:28:37.656Z,7.35
2023-03-22T03:29:37.619Z,7.37
2023-03-22T03:30:37.949Z,7.41
2023-03-22T03:31:37.659Z,7.44
2023-03-22T03:32:37.584Z,7.41
2023-03-22T03:33:37.587Z,7.37
2023-03-22T03:34:37.562Z,7.41
2023-03-22T03:35:37.636Z,7.47
2023-03-22T03:36:37.541Z,7.47
2023-03-22T03:37:37.546Z,7.50
2023-03-22T03:38:37.517Z,7.37
2023-03-22T03:39:37.514Z,7.45
2023-03-22T03:40:37.988Z,7.44
2023-03-22T03:41:37.495Z,7.45
2023-03-22T03:42:37.497Z,7.37
2023-03-22T03:43:37.497Z,7.38
2023-03-22T03:44:37.493Z,7.45
2023-03-22T03:45:37.535Z,7.41
2023-03-22T03:46:37.437Z,7.42
2023-03-22T03:47:37.432Z,7.47
2023-03-22T03:48:37.422Z,7.56
2023-03-22T03:49:37.416Z,7.42
2023-03-22T03:50:37.691Z,7.42
2023-03-22T03:51:37.396Z,7.47
2023-03-22T03:52:37.378Z,7.47
2023-03-22T03:53:37.370Z,7.47
2023-03-22T03:54:37.368Z,7.41
2023-03-22T03:55:37.371Z,7.44
2023-03-22T03:56:37.350Z,7.47
2023-03-22T03:57:37.335Z,7.42
2023-03-22T03:58:37.343Z,7.37
2023-03-22T03:59:37.332Z,7.34
2023-03-22T04:00:37.464Z,7.44
2023-03-22T04:01:37.301Z,7.42
2023-03-22T04:02:37.376Z,7.29
2023-03-22T04:03:37.296Z,7.23
2023-03-22T04:05:09.172Z,7.23
2023-03-22T04:05:37.263Z,7.24
2023-03-22T04:06:37.245Z,7.20
2023-03-22T04:07:37.266Z,7.27
2023-03-22T04:08:37.228Z,7.17
2023-03-22T04:09:37.247Z,7.22
2023-03-22T04:10:37.455Z,7.24
2023-03-22T04:11:37.201Z,7.24
2023-03-22T04:12:37.212Z,7.19
2023-03-22T04:13:37.179Z,7.24
2023-03-22T04:14:37.169Z,7.19
2023-03-22T04:15:37.157Z,7.27
2023-03-22T04:16:37.206Z,7.22
2023-03-22T04:17:37.167Z,7.16
2023-03-22T04:18:37.139Z,7.05
2023-03-22T04:19:37.123Z,7.08
2023-03-22T04:20:37.453Z,7.16
2023-03-22T04:21:37.098Z,7.16
2023-03-22T04:22:37.085Z,7.17
2023-03-22T04:23:37.084Z,7.16
2023-03-22T04:24:37.075Z,7.16
2023-03-22T04:25:37.085Z,7.19
2023-03-22T04:26:37.090Z,7.09
2023-03-22T04:27:37.037Z,7.20
2023-03-22T04:28:37.035Z,7.24
2023-03-22T04:29:37.009Z,7.12
2023-03-22T04:30:37.147Z,7.16
2023-03-22T04:31:36.992Z,7.15
2023-03-22T04:32:36.983Z,7.08
2023-03-22T04:33:36.974Z,7.12
2023-03-22T04:34:36.960Z,7.12
2023-03-22T04:35:36.988Z,7.17
2023-03-22T04:36:36.955Z,7.17
2023-03-22T04:37:36.947Z,7.17
2023-03-22T04:38:36.931Z,7.07
2023-03-22T04:39:36.907Z,7.12
2023-03-22T04:40:38.527Z,7.16
2023-03-22T04:41:36.921Z,7.19
2023-03-22T04:42:36.882Z,7.07
2023-03-22T04:43:36.882Z,7.12
2023-03-22T04:44:36.870Z,7.15
2023-03-22T04:45:36.841Z,7.13
2023-03-22T04:46:37.892Z,7.20
2023-03-22T04:47:36.827Z,7.19
2023-03-22T04:48:36.834Z,7.08
2023-03-22T04:49:36.816Z,7.08
2023-03-22T04:50:36.943Z,7.08
2023-03-22T04:51:36.835Z,7.08
2023-03-22T04:52:36.784Z,7.05
2023-03-22T04:53:36.772Z,7.04
2023-03-22T04:54:36.757Z,7.02
2023-03-22T04:55:36.755Z,7.08
2023-03-22T04:56:36.789Z,6.95
2023-03-22T04:57:37.715Z,7.09
2023-03-22T04:58:36.745Z,6.97
2023-03-22T04:59:36.726Z,7.04
2023-03-22T05:00:36.721Z,6.90
2023-03-22T05:01:36.719Z,7.02
2023-03-22T05:02:36.745Z,6.95
2023-03-22T05:03:36.703Z,6.99
2023-03-22T05:04:36.658Z,6.97
2023-03-22T05:05:36.651Z,7.02
2023-03-22T05:06:36.648Z,6.99
2023-03-22T05:07:36.631Z,7.02
2023-03-22T05:08:36.676Z,7.02
2023-03-22T05:09:36.612Z,6.90
2023-03-22T05:10:36.594Z,6.99
2023-03-22T05:11:36.636Z,6.95
2023-03-22T05:12:36.602Z,6.90
2023-03-22T05:13:36.580Z,6.87
2023-03-22T05:14:36.649Z,6.89
2023-03-22T05:15:36.550Z,6.90
2023-03-22T05:16:37.557Z,6.90
2023-03-22T05:17:36.538Z,6.94
2023-03-22T05:18:36.519Z,6.90
2023-03-22T05:19:36.518Z,6.98
2023-03-22T05:20:36.514Z,6.87
2023-03-22T05:21:36.625Z,6.91
2023-03-22T05:22:36.480Z,7.01
2023-03-22T05:23:36.496Z,6.90
2023-03-22T05:24:36.455Z,7.01
2023-03-22T05:25:36.458Z,7.07
2023-03-22T05:26:36.482Z,7.04
2023-03-22T05:27:36.429Z,7.05
2023-03-22T05:28:36.416Z,7.02
2023-03-22T05:29:36.408Z,7.05
2023-03-22T05:30:36.431Z,7.04
2023-03-22T05:31:36.436Z,7.19
2023-03-22T05:32:36.382Z,7.17
2023-03-22T05:33:36.366Z,7.16
2023-03-22T05:34:36.350Z,7.19
2023-03-22T05:35:36.406Z,7.12
2023-03-22T05:36:36.403Z,7.07
2023-03-22T05:37:36.330Z,7.17
2023-03-22T05:38:36.333Z,7.12
2023-03-22T05:39:36.311Z,7.16
2023-03-22T05:40:36.307Z,7.07
2023-03-22T05:41:36.969Z,7.15
2023-03-22T05:42:37.279Z,7.15
2023-03-22T05:43:36.276Z,7.20
2023-03-22T05:44:36.261Z,7.07
2023-03-22T05:45:36.246Z,7.17
2023-03-22T05:46:36.293Z,7.16
2023-03-22T05:47:36.225Z,7.19
2023-03-22T05:48:36.215Z,7.22
2023-03-22T05:49:36.210Z,7.17
2023-03-22T05:50:36.219Z,7.09
2023-03-22T05:51:36.231Z,7.17
2023-03-22T05:52:36.181Z,7.20
2023-03-22T05:53:36.162Z,7.19
2023-03-22T05:54:36.151Z,7.13
2023-03-22T05:55:36.149Z,7.17
2023-03-22T05:56:36.200Z,7.23
2023-03-22T05:57:36.130Z,7.23
2023-03-22T05:58:36.110Z,7.31
2023-03-22T05:59:36.107Z,7.26
2023-03-22T06:00:36.092Z,7.29
2023-03-22T06:01:36.119Z,7.32
2023-03-22T06:02:36.079Z,7.42
2023-03-22T06:03:36.148Z,7.32
2023-03-22T06:04:36.052Z,7.32
2023-03-22T06:05:36.051Z,7.37
2023-03-22T06:06:36.093Z,7.42
2023-03-22T06:07:36.018Z,7.49
2023-03-22T06:08:36.018Z,7.53
2023-03-22T06:09:35.999Z,7.60
2023-03-22T06:10:36.014Z,7.45
2023-03-22T06:11:35.996Z,7.52
2023-03-22T06:12:36.945Z,7.62
2023-03-22T06:13:35.960Z,7.63
2023-03-22T06:14:35.965Z,7.50
2023-03-22T06:15:35.941Z,7.58
2023-03-22T06:16:36.038Z,7.59
2023-03-22T06:17:35.915Z,7.62
2023-03-22T06:18:35.917Z,7.56
2023-03-22T06:19:35.902Z,7.63
2023-03-22T06:20:35.948Z,7.56
2023-03-22T06:21:35.952Z,7.59
2023-03-22T06:22:35.901Z,7.67
2023-03-22T06:23:35.867Z,7.63
2023-03-22T06:24:35.873Z,7.60
2023-03-22T06:25:35.892Z,7.66
2023-03-22T06:26:35.907Z,7.71
2023-03-22T06:27:35.830Z,7.66
2023-03-22T06:28:35.851Z,7.74
2023-03-22T06:29:35.807Z,7.71
2023-03-22T06:30:35.817Z,7.72
2023-03-22T06:31:35.852Z,7.87
2023-03-22T06:32:35.789Z,7.79
2023-03-22T06:33:35.749Z,7.90
2023-03-22T06:34:35.782Z,7.84
2023-03-22T06:35:35.794Z,7.97
2023-03-22T06:36:35.754Z,7.97
2023-03-22T06:37:35.707Z,7.99
2023-03-22T06:38:35.714Z,7.94
2023-03-22T06:39:35.692Z,8.07
2023-03-22T06:40:35.713Z,8.00
2023-03-22T06:41:36.744Z,8.08
2023-03-22T06:42:35.675Z,8.22
2023-03-22T06:43:35.650Z,8.11
2023-03-22T06:44:35.647Z,8.20
2023-03-22T06:45:35.647Z,8.14
2023-03-22T06:46:35.676Z,8.32
2023-03-22T06:47:35.620Z,8.30
2023-03-22T06:48:35.603Z,8.26
2023-03-22T06:49:35.625Z,8.42
2023-03-22T06:50:35.581Z,8.39
2023-03-22T06:51:35.634Z,8.45
2023-03-22T06:52:35.569Z,8.50
2023-03-22T06:53:35.550Z,8.47
2023-03-22T06:54:35.549Z,8.60
2023-03-22T06:55:35.548Z,8.54
2023-03-22T06:56:35.618Z,8.62
2023-03-22T06:57:35.520Z,8.72
2023-03-22T06:58:35.507Z,8.68
2023-03-22T06:59:35.496Z,8.65
2023-03-22T07:00:35.489Z,8.65
2023-03-22T07:01:35.495Z,8.87
2023-03-22T07:02:35.501Z,8.81
2023-03-22T07:03:35.464Z,8.87
2023-03-22T07:04:35.461Z,8.86
2023-03-22T07:05:35.619Z,8.96
2023-03-22T07:06:35.437Z,8.97
2023-03-22T07:07:35.463Z,9.10
2023-03-22T07:08:35.449Z,9.09
2023-03-22T07:09:35.416Z,9.10
2023-03-22T07:10:35.412Z,9.05
2023-03-22T07:11:35.406Z,9.20
2023-03-22T07:12:35.415Z,9.15
2023-03-22T07:13:35.386Z,9.23
2023-03-22T07:14:35.364Z,9.28
2023-03-22T07:15:35.408Z,9.28
2023-03-22T07:16:35.335Z,9.28
2023-03-22T07:17:35.356Z,9.39
2023-03-22T07:18:35.310Z,9.46
2023-03-22T07:19:35.311Z,9.57
2023-03-22T07:20:35.303Z,9.58
2023-03-22T07:21:35.295Z,9.58
2023-03-22T07:22:35.300Z,9.68
2023-03-22T07:23:35.280Z,9.76
2023-03-22T07:24:37.192Z,9.73
2023-03-22T07:25:36.246Z,9.83
2023-03-22T07:26:35.239Z,9.89
2023-03-22T07:27:35.255Z,9.89
2023-03-22T07:28:35.234Z,9.96
2023-03-22T07:29:35.206Z,10.07
2023-03-22T07:30:35.225Z,10.18
2023-03-22T07:31:35.183Z,10.26
2023-03-22T07:32:35.248Z,10.25
2023-03-22T07:33:35.214Z,10.39
2023-03-22T07:34:35.157Z,10.44
2023-03-22T07:35:35.242Z,10.39
2023-03-22T07:36:35.144Z,10.53
2023-03-22T07:37:35.144Z,10.52
2023-03-22T07:38:35.129Z,10.60
2023-03-22T07:39:35.121Z,10.55
2023-03-22T07:40:35.125Z,10.53
2023-03-22T07:41:35.091Z,10.63
2023-03-22T07:42:35.138Z,10.66
2023-03-22T07:43:47.304Z,10.66
2023-03-22T07:44:37.065Z,10.71
2023-03-22T07:45:35.078Z,10.73
2023-03-22T07:46:35.076Z,10.70
2023-03-22T07:47:41.042Z,10.73
2023-03-22T07:48:37.036Z,10.66
2023-03-22T07:49:35.015Z,10.71
2023-03-22T07:50:35.055Z,10.65
2023-03-22T07:51:34.998Z,10.76
2023-03-22T07:52:35.045Z,10.65
2023-03-22T07:53:34.988Z,10.56
2023-03-22T07:54:34.985Z,10.63
2023-03-22T07:55:34.972Z,10.55
2023-03-22T07:56:34.957Z,10.70
2023-03-22T07:57:34.952Z,10.70
2023-03-22T07:58:34.932Z,10.66
2023-03-22T07:59:34.919Z,10.55
2023-03-22T08:00:34.915Z,10.62
2023-03-22T08:01:34.995Z,10.58
2023-03-22T08:02:34.927Z,10.55
2023-03-22T08:03:34.900Z,10.51
2023-03-22T08:04:34.886Z,10.46
2023-03-22T08:05:34.864Z,10.47
2023-03-22T08:06:34.841Z,10.52
2023-03-22T08:07:35.879Z,10.51
2023-03-22T08:08:34.844Z,10.46
2023-03-22T08:09:34.820Z,10.59
2023-03-22T08:10:34.944Z,10.56
2023-03-22T08:11:34.809Z,10.58
2023-03-22T08:12:34.825Z,10.58
2023-03-22T08:13:34.782Z,10.53
2023-03-22T08:14:36.825Z,10.55
2023-03-22T08:15:35.784Z,10.58
2023-03-22T08:16:34.790Z,10.60
2023-03-22T08:17:34.762Z,10.68
2023-03-22T08:18:34.738Z,10.68
2023-03-22T08:19:34.722Z,10.70
2023-03-22T08:20:34.717Z,10.78
2023-03-22T08:21:34.710Z,10.71
2023-03-22T08:22:34.728Z,10.86
2023-03-22T08:23:41.796Z,10.83
2023-03-22T08:24:36.681Z,10.86
2023-03-22T08:25:34.669Z,10.81
2023-03-22T08:26:34.658Z,10.91
2023-03-22T08:27:34.691Z,11.02
2023-03-22T08:28:34.643Z,11.09
2023-03-22T08:29:34.641Z,11.03
2023-03-22T08:30:34.621Z,11.11
2023-03-22T08:31:34.633Z,11.20
2023-03-22T08:32:34.617Z,11.16
2023-03-22T08:33:34.596Z,11.13
2023-03-22T08:34:34.622Z,11.13
2023-03-22T08:35:34.574Z,11.25
2023-03-22T08:36:34.553Z,11.19
2023-03-22T08:37:34.566Z,11.29
2023-03-22T08:38:34.539Z,11.29
2023-03-22T08:39:34.540Z,11.20
2023-03-22T08:40:34.594Z,11.21
2023-03-22T08:41:34.513Z,11.29
2023-03-22T08:42:34.535Z,11.21
2023-03-22T08:43:34.488Z,11.21
2023-03-22T08:44:34.481Z,11.17
2023-03-22T08:45:34.470Z,11.11
2023-03-22T08:46:34.537Z,11.24
2023-03-22T08:47:34.470Z,11.17
2023-03-22T08:48:34.437Z,11.11
2023-03-22T08:49:34.454Z,11.20
2023-03-22T08:50:34.455Z,11.17
2023-03-22T08:51:34.424Z,11.17
2023-03-22T08:52:34.434Z,11.19
2023-03-22T08:53:34.419Z,11.27
2023-03-22T08:54:35.017Z,11.32
2023-03-22T08:55:34.368Z,11.41
2023-03-22T08:56:34.367Z,11.39
2023-03-22T08:57:34.692Z,11.35
2023-03-22T08:58:35.340Z,11.43
2023-03-22T08:59:34.357Z,11.38
2023-03-22T09:00:47.780Z,11.49
2023-03-22T09:01:36.431Z,11.49
2023-03-22T09:02:34.349Z,11.49
2023-03-22T09:03:34.291Z,11.68
2023-03-22T09:04:34.311Z,11.57
2023-03-22T09:05:34.277Z,11.67
2023-03-22T09:06:34.265Z,11.80
2023-03-22T09:07:34.273Z,11.70
2023-03-22T09:08:34.234Z,11.65
2023-03-22T09:09:35.236Z,11.80
2023-03-22T09:10:34.229Z,11.83
2023-03-22T09:11:34.214Z,11.80
2023-03-22T09:12:34.229Z,11.94
2023-03-22T09:13:34.198Z,11.93
2023-03-22T09:14:34.191Z,11.97
2023-03-22T09:15:34.201Z,11.97
2023-03-22T09:16:34.935Z,11.94
2023-03-22T09:17:34.152Z,11.93
2023-03-22T09:18:34.174Z,12.15
2023-03-22T09:19:35.294Z,12.19
2023-03-22T09:20:34.156Z,12.27
2023-03-22T09:21:34.145Z,12.21
2023-03-22T09:22:34.111Z,12.41
2023-03-22T09:23:34.110Z,12.24
2023-03-22T09:24:34.078Z,12.13
2023-03-22T09:25:34.084Z,12.15
2023-03-22T09:26:34.072Z,12.04
2023-03-22T09:27:34.059Z,12.04
2023-03-22T09:28:34.074Z,12.12
2023-03-22T09:29:34.033Z,12.23
2023-03-22T09:30:34.056Z,12.26
2023-03-22T09:31:34.100Z,12.37
2023-03-22T09:32:34.749Z,12.44
2023-03-22T09:33:33.992Z,12.41
2023-03-22T09:34:33.986Z,12.60
2023-03-22T09:35:33.998Z,12.48
2023-03-22T09:36:33.960Z,12.49
2023-03-22T09:37:33.970Z,12.66
2023-03-22T09:38:34.014Z,12.67
2023-03-22T09:39:33.922Z,12.71
2023-03-22T09:40:33.933Z,12.70
2023-03-22T09:41:33.916Z,12.70
2023-03-22T09:42:33.945Z,12.67
2023-03-22T09:43:33.891Z,12.74
2023-03-22T09:44:33.883Z,12.74
2023-03-22T09:45:33.874Z,12.69
2023-03-22T09:46:33.929Z,12.52
2023-03-22T09:47:44.476Z,12.64
2023-03-22T09:48:35.855Z,12.59
2023-03-22T09:49:46.943Z,12.60
2023-03-22T09:50:35.828Z,12.62
2023-03-22T09:51:33.815Z,12.48
2023-03-22T09:52:33.860Z,12.62
2023-03-22T09:53:33.802Z,12.78
2023-03-22T09:54:33.797Z,12.79
2023-03-22T09:55:33.788Z,12.69
2023-03-22T09:56:33.762Z,12.75
2023-03-22T09:57:33.761Z,12.71
2023-03-22T09:58:33.769Z,12.66
2023-03-22T09:59:33.745Z,12.59
2023-03-22T10:00:33.867Z,12.60
2023-03-22T10:01:34.051Z,12.59
2023-03-22T10:02:33.759Z,12.63
2023-03-22T10:03:33.775Z,12.85
2023-03-22T10:04:33.737Z,12.96
2023-03-22T10:05:33.709Z,12.95
2023-03-22T10:06:33.671Z,13.06
2023-03-22T10:07:46.703Z,13.14
2023-03-22T10:08:33.648Z,13.03
2023-03-22T10:09:33.634Z,12.99
2023-03-22T10:10:33.644Z,12.87
2023-03-22T10:11:33.636Z,13.07
2023-03-22T10:12:33.615Z,13.00
2023-03-22T10:13:33.648Z,13.06
2023-03-22T10:14:33.585Z,13.14
2023-03-22T10:15:33.574Z,13.27
2023-03-22T10:16:33.600Z,13.32
2023-03-22T10:17:33.559Z,13.43
2023-03-22T10:18:33.569Z,13.36
2023-03-22T10:19:33.534Z,13.38
2023-03-22T10:20:34.560Z,13.41
2023-03-22T10:21:33.528Z,13.27
2023-03-22T10:22:33.519Z,13.17
2023-03-22T10:23:33.556Z,13.27
2023-03-22T10:24:33.496Z,13.29
2023-03-22T10:25:33.483Z,13.37
2023-03-22T10:26:33.492Z,13.33
2023-03-22T10:27:33.457Z,13.40
2023-03-22T10:28:33.465Z,13.30
2023-03-22T10:29:33.447Z,13.52
2023-03-22T10:30:33.440Z,13.52
2023-03-22T10:31:33.488Z,13.56
2023-03-22T10:32:33.424Z,13.63
2023-03-22T10:33:33.477Z,13.74
2023-03-22T10:34:33.391Z,13.88
2023-03-22T10:35:33.425Z,13.81
2023-03-22T10:36:33.372Z,13.84
2023-03-22T10:37:33.375Z,13.96
2023-03-22T10:38:33.441Z,14.01
2023-03-22T10:39:33.346Z,13.88
2023-03-22T10:40:33.336Z,13.94
2023-03-22T10:41:33.347Z,13.91
2023-03-22T10:42:33.317Z,13.92
2023-03-22T10:43:33.299Z,13.80
2023-03-22T10:44:33.323Z,13.79
2023-03-22T10:45:33.280Z,13.79
2023-03-22T10:46:33.298Z,13.87
2023-03-22T10:47:33.261Z,13.61
2023-03-22T10:48:33.495Z,13.76
2023-03-22T10:49:33.307Z,13.77
2023-03-22T10:50:33.239Z,13.92
2023-03-22T10:51:33.256Z,13.88
2023-03-22T10:52:33.211Z,13.80
2023-03-22T10:53:33.217Z,13.79
2023-03-22T10:54:33.190Z,13.73
2023-03-22T10:55:33.223Z,13.83
2023-03-22T10:56:33.180Z,13.81
2023-03-22T10:57:33.176Z,13.71
2023-03-22T10:58:33.181Z,13.83
2023-03-22T10:59:33.144Z,13.83
2023-03-22T11:00:33.183Z,13.67
2023-03-22T11:01:33.279Z,13.65
2023-03-22T11:02:33.222Z,13.63
2023-03-22T11:03:33.101Z,13.70
2023-03-22T11:04:33.097Z,13.65
2023-03-22T11:05:33.091Z,13.95
2023-03-22T11:06:33.085Z,13.87
2023-03-22T11:07:33.068Z,13.94
2023-03-22T11:08:33.078Z,14.02
2023-03-22T11:09:33.050Z,14.16
2023-03-22T11:10:33.163Z,14.21
2023-03-22T11:11:33.051Z,14.35
2023-03-22T11:12:33.027Z,14.42
2023-03-22T11:13:33.029Z,14.25
2023-03-22T11:14:33.005Z,14.37
2023-03-22T11:15:32.993Z,14.47
2023-03-22T11:16:33.030Z,14.61
2023-03-22T11:17:32.971Z,14.42
2023-03-22T11:18:32.983Z,14.50
2023-03-22T11:19:32.948Z,14.37
2023-03-22T11:20:33.015Z,14.34
2023-03-22T11:21:32.963Z,14.13
2023-03-22T11:22:32.915Z,14.27
2023-03-22T11:23:32.941Z,14.31
2023-03-22T11:24:32.937Z,14.32
2023-03-22T11:25:32.897Z,14.32
2023-03-22T11:26:33.267Z,14.06
2023-03-22T11:27:32.913Z,14.01
2023-03-22T11:28:32.878Z,14.14
2023-03-22T11:29:32.848Z,14.20
2023-03-22T11:30:32.839Z,14.21
2023-03-22T11:31:32.849Z,14.14
2023-03-22T11:32:32.886Z,14.34
2023-03-22T11:33:32.833Z,14.37
2023-03-22T11:34:32.845Z,14.39
2023-03-22T11:35:32.822Z,14.56
2023-03-22T11:36:32.790Z,14.62
2023-03-22T11:37:32.782Z,14.67
2023-03-22T11:38:32.782Z,14.57
2023-03-22T11:39:32.748Z,14.57
2023-03-22T11:40:32.765Z,14.43
2023-03-22T11:41:32.737Z,14.52
2023-03-22T11:42:32.736Z,14.46
2023-03-22T11:43:32.807Z,14.25
2023-03-22T11:44:32.712Z,14.46
2023-03-22T11:45:32.696Z,14.42
2023-03-22T11:46:33.708Z,14.52
2023-03-22T11:47:33.684Z,14.57
2023-03-22T11:48:32.851Z,14.50
2023-03-22T11:49:32.675Z,14.64
2023-03-22T11:50:32.771Z,14.88
2023-03-22T11:51:32.649Z,14.99
2023-03-22T11:52:32.661Z,14.95
2023-03-22T11:53:32.634Z,15.02
2023-03-22T11:54:32.611Z,15.01
2023-03-22T11:55:32.615Z,14.98
2023-03-22T11:56:32.596Z,14.90
2023-03-22T11:57:32.579Z,15.02
2023-03-22T11:58:32.585Z,14.95
2023-03-22T11:59:32.562Z,15.19
2023-03-22T12:00:32.552Z,15.30
2023-03-22T12:01:32.548Z,15.42
2023-03-22T12:02:32.648Z,15.24
2023-03-22T12:03:32.734Z,15.30
2023-03-22T12:04:32.579Z,15.21
2023-03-22T12:05:32.498Z,15.13
2023-03-22T12:06:32.543Z,15.20
2023-03-22T12:07:32.478Z,15.21
2023-03-22T12:08:32.511Z,15.20
2023-03-22T12:09:32.462Z,15.15
2023-03-22T12:10:32.449Z,15.35
2023-03-22T12:11:32.443Z,15.42
2023-03-22T12:12:32.430Z,15.63
2023-03-22T12:13:32.435Z,15.56
2023-03-22T12:14:32.417Z,15.72
2023-03-22T12:15:32.397Z,15.84
2023-03-22T12:16:32.435Z,15.92
2023-03-22T12:17:32.432Z,16.01
2023-03-22T12:18:32.423Z,16.14
2023-03-22T12:19:32.360Z,16.23
2023-03-22T12:20:32.366Z,16.40
2023-03-22T12:21:32.377Z,16.40
2023-03-22T12:22:32.343Z,16.35
2023-03-22T12:23:32.347Z,16.50
2023-03-22T12:24:32.305Z,16.40
2023-03-22T12:25:32.312Z,16.26
2023-03-22T12:26:32.287Z,16.26
2023-03-22T12:27:32.280Z,16.18
2023-03-22T12:28:32.292Z,16.20
2023-03-22T12:29:32.273Z,16.09
2023-03-22T12:30:32.261Z,15.99
2023-03-22T12:31:32.291Z,15.82
2023-03-22T12:32:32.275Z,15.81
2023-03-22T12:33:32.254Z,15.81
2023-03-22T12:34:32.220Z,15.76
2023-03-22T12:35:32.209Z,15.85
2023-03-22T12:36:32.201Z,15.81
2023-03-22T12:37:32.190Z,15.72
2023-03-22T12:38:32.219Z,15.78
2023-03-22T12:39:32.170Z,15.66
2023-03-22T12:40:32.174Z,15.51
2023-03-22T12:41:32.146Z,15.56
2023-03-22T12:42:34.702Z,15.66
2023-03-22T12:43:33.141Z,15.66
2023-03-22T12:44:32.127Z,15.63
2023-03-22T12:45:32.118Z,15.63
2023-03-22T12:46:32.124Z,15.54
2023-03-22T12:47:32.134Z,15.52
2023-03-22T12:48:32.161Z,15.60
2023-03-22T12:49:32.079Z,15.82
2023-03-22T12:50:32.067Z,15.56
2023-03-22T12:51:32.049Z,15.54
2023-03-22T12:52:37.763Z,15.59
2023-03-22T12:53:34.040Z,15.54
2023-03-22T12:54:32.021Z,15.59
2023-03-22T12:55:32.029Z,15.68
2023-03-22T12:56:31.996Z,15.75
2023-03-22T12:57:31.987Z,15.89
2023-03-22T12:58:32.003Z,15.56
2023-03-22T12:59:31.976Z,15.68
2023-03-22T13:00:32.042Z,15.56
2023-03-22T13:01:31.971Z,15.57
2023-03-22T13:02:32.150Z,15.63
2023-03-22T13:03:32.069Z,15.64
2023-03-22T13:04:31.936Z,15.48
2023-03-22T13:05:31.922Z,15.36
2023-03-22T13:06:31.898Z,15.38
2023-03-22T13:07:31.909Z,15.51